Time;durP1;ratioP1;P1;durP2;ratioP2;P2;SDS_P1;SDS_P2;PMS_P1;PMS_P2;Temp;Humidity;BMP_temperature;BMP_pressure;BME280_temperature;BME280_humidity;BME280_pressure;Samples;Min_cycle;Max_cycle;Signal;HPM_P1;HPM_P2
2022/11/29 00:01:39;;;;;;;16.83;13.60;;;;;;;;;;5067694;28;20184;-78
2022/11/29 00:04:05;;;;;;;14.87;12.23;;;;;;;;;;5082193;28;20199;-78
2022/11/29 00:06:32;;;;;;;17.23;13.57;;;;;;;;;;5084634;28;20656;-78
2022/11/29 00:08:59;;;;;;;16.97;13.23;;;;;;;;;;5077613;28;20184;-78
2022/11/29 00:14:14;;;;;;;19.75;16.40;;;;;;;;;;5087137;28;20436;-78
2022/11/29 00:16:40;;;;;;;19.37;14.73;;;;;;;;;;5065507;28;20276;-78
2022/11/29 00:19:07;;;;;;;19.23;15.47;;;;;;;;;;5075374;28;20181;-78
2022/11/29 00:21:33;;;;;;;20.20;14.70;;;;;;;;;;5085142;28;20180;-78
2022/11/29 00:23:59;;;;;;;18.10;14.67;;;;;;;;;;5086847;28;20612;-78
2022/11/29 00:26:25;;;;;;;17.07;13.90;;;;;;;;;;5082094;28;20212;-78
2022/11/29 00:28:54;;;;;;;16.03;13.07;;;;;;;;;;5092021;28;21594;-78
2022/11/29 00:31:20;;;;;;;18.87;13.90;;;;;;;;;;5091576;28;20255;-78
2022/11/29 00:33:46;;;;;;;18.83;14.13;;;;;;;;;;5087775;28;20180;-78
2022/11/29 00:36:13;;;;;;;19.40;14.23;;;;;;;;;;5086904;28;20670;-78
2022/11/29 00:38:40;;;;;;;18.00;13.93;;;;;;;;;;5082131;28;20236;-78
2022/11/29 00:41:06;;;;;;;15.63;12.50;;;;;;;;;;5070540;28;20658;-78
2022/11/29 00:43:32;;;;;;;20.73;14.90;;;;;;;;;;5077068;28;20211;-78
2022/11/29 00:45:58;;;;;;;18.90;14.73;;;;;;;;;;5086522;28;20189;-78
2022/11/29 00:48:25;;;;;;;20.00;14.70;;;;;;;;;;5082764;28;20634;-78
2022/11/29 00:50:51;;;;;;;16.80;13.43;;;;;;;;;;5073655;28;20188;-78
2022/11/29 00:53:17;;;;;;;19.37;13.87;;;;;;;;;;5058483;28;20447;-78
2022/11/29 00:55:44;;;;;;;21.83;15.17;;;;;;;;;;5092924;28;20544;-78
2022/11/29 00:58:10;;;;;;;20.17;15.17;;;;;;;;;;5087149;28;20192;-78
2022/11/29 01:00:36;;;;;;;18.27;13.83;;;;;;;;;;5079197;28;20255;-78
2022/11/29 01:03:02;;;;;;;19.33;15.67;;;;;;;;;;5075115;28;20252;-78
2022/11/29 01:05:30;;;;;;;19.63;14.83;;;;;;;;;;5069693;28;20178;-78
2022/11/29 01:07:56;;;;;;;17.67;13.10;;;;;;;;;;5092395;28;20274;-78
2022/11/29 01:10:22;;;;;;;20.37;15.20;;;;;;;;;;5067956;28;20230;-78
2022/11/29 01:12:48;;;;;;;19.10;14.87;;;;;;;;;;5092740;28;20302;-78
2022/11/29 01:15:14;;;;;;;18.87;14.80;;;;;;;;;;5074020;28;20229;-78
2022/11/29 01:17:41;;;;;;;22.47;15.73;;;;;;;;;;5074855;28;20294;-78
2022/11/29 01:20:08;;;;;;;19.93;14.77;;;;;;;;;;5091007;28;20181;-78
2022/11/29 01:22:35;;;;;;;19.40;14.60;;;;;;;;;;5066542;28;20208;-78
2022/11/29 01:25:01;;;;;;;18.27;14.17;;;;;;;;;;5108654;28;20187;-77
2022/11/29 01:27:28;;;;;;;21.23;16.57;;;;;;;;;;5090502;28;20196;-78
2022/11/29 01:29:54;;;;;;;21.90;16.07;;;;;;;;;;5095578;28;20221;-78
2022/11/29 01:32:20;;;;;;;20.23;15.90;;;;;;;;;;5091612;28;20180;-78
2022/11/29 01:34:46;;;;;;;17.03;14.27;;;;;;;;;;5072538;28;20200;-78
2022/11/29 01:37:13;;;;;;;20.37;15.27;;;;;;;;;;5089082;28;20212;-78
2022/11/29 01:39:39;;;;;;;15.97;13.47;;;;;;;;;;5080753;28;20203;-78
2022/11/29 01:42:05;;;;;;;17.67;13.70;;;;;;;;;;5090375;28;20188;-78
2022/11/29 01:44:31;;;;;;;18.57;14.23;;;;;;;;;;5068281;28;20264;-78
2022/11/29 01:46:57;;;;;;;16.90;13.37;;;;;;;;;;5084193;28;20778;-78
2022/11/29 01:49:26;;;;;;;17.10;14.50;;;;;;;;;;5089802;28;20249;-78
2022/11/29 01:52:00;;;;;;;17.57;14.30;;;;;;;;;;5085000;28;20203;-78
2022/11/29 01:54:28;;;;;;;18.20;14.63;;;;;;;;;;5082790;28;20177;-78
2022/11/29 01:56:55;;;;;;;19.20;14.50;;;;;;;;;;5080236;28;20212;-78
2022/11/29 01:59:26;;;;;;;18.50;14.60;;;;;;;;;;5089577;28;20800;-78
2022/11/29 02:01:54;;;;;;;18.50;14.07;;;;;;;;;;5079714;28;20180;-78
2022/11/29 02:04:20;;;;;;;17.10;13.13;;;;;;;;;;5085415;28;20203;-78
2022/11/29 02:06:46;;;;;;;18.57;13.67;;;;;;;;;;5082039;28;20223;-78
2022/11/29 02:09:19;;;;;;;16.63;13.17;;;;;;;;;;5070506;28;20672;-78
2022/11/29 02:12:04;;;;;;;18.87;13.47;;;;;;;;;;5076915;28;20177;-78
2022/11/29 02:14:34;;;;;;;16.27;14.10;;;;;;;;;;5087103;28;20247;-78
2022/11/29 02:17:29;;;;;;;18.20;14.63;;;;;;;;;;5072581;28;20676;-78
2022/11/29 02:20:08;;;;;;;20.20;13.93;;;;;;;;;;5054081;28;20713;-77
2022/11/29 02:22:42;;;;;;;20.57;15.20;;;;;;;;;;5093986;28;20186;-78
2022/11/29 02:25:08;;;;;;;20.60;15.10;;;;;;;;;;5066244;28;20202;-78
2022/11/29 02:27:45;;;;;;;16.80;12.93;;;;;;;;;;5089031;28;20209;-78
2022/11/29 02:30:16;;;;;;;16.07;12.83;;;;;;;;;;5062259;28;20189;-77
2022/11/29 02:33:02;;;;;;;19.37;14.97;;;;;;;;;;5089197;28;20188;-78
2022/11/29 02:35:49;;;;;;;17.13;13.80;;;;;;;;;;5031840;28;20193;-78
2022/11/29 02:38:15;;;;;;;19.43;15.03;;;;;;;;;;5075970;28;20321;-78
2022/11/29 02:40:55;;;;;;;17.47;14.57;;;;;;;;;;5078187;28;20192;-78
2022/11/29 02:43:31;;;;;;;21.50;14.77;;;;;;;;;;5085234;28;20209;-78
2022/11/29 02:46:15;;;;;;;16.13;13.33;;;;;;;;;;5082920;28;20898;-78
2022/11/29 02:48:57;;;;;;;20.43;14.90;;;;;;;;;;5058881;28;20254;-77
2022/11/29 02:51:32;;;;;;;18.67;14.77;;;;;;;;;;5082365;28;20847;-78
2022/11/29 02:54:19;;;;;;;15.73;13.27;;;;;;;;;;5084989;28;20230;-77
2022/11/29 02:57:03;;;;;;;19.40;14.57;;;;;;;;;;5093037;28;20204;-77
2022/11/29 02:59:47;;;;;;;21.00;15.90;;;;;;;;;;5088661;28;20207;-77
2022/11/29 03:02:16;;;;;;;16.40;13.80;;;;;;;;;;5083826;28;20218;-77
2022/11/29 03:04:47;;;;;;;18.67;14.83;;;;;;;;;;5091937;28;20211;-77
2022/11/29 03:07:16;;;;;;;19.50;16.13;;;;;;;;;;5089554;28;20209;-77
2022/11/29 03:09:48;;;;;;;22.07;16.70;;;;;;;;;;5071708;28;20889;-77
2022/11/29 03:12:33;;;;;;;21.53;15.97;;;;;;;;;;5087562;28;20176;-77
2022/11/29 03:15:12;;;;;;;23.50;17.30;;;;;;;;;;5085909;28;20192;-77
2022/11/29 03:17:45;;;;;;;19.80;15.70;;;;;;;;;;5070065;28;20298;-77
2022/11/29 03:20:31;;;;;;;24.70;17.83;;;;;;;;;;5068878;28;20202;-77
2022/11/29 03:22:57;;;;;;;20.13;15.60;;;;;;;;;;5055026;28;20209;-77
2022/11/29 03:25:32;;;;;;;20.17;16.00;;;;;;;;;;5104445;28;20599;-77
2022/11/29 03:28:01;;;;;;;24.90;18.43;;;;;;;;;;5087570;28;20294;-77
2022/11/29 03:30:28;;;;;;;23.92;18.45;;;;;;;;;;5061167;28;20515;-77
2022/11/29 03:32:54;;;;;;;18.50;15.87;;;;;;;;;;5076737;28;20285;-77
2022/11/29 03:35:37;;;;;;;19.30;14.93;;;;;;;;;;5047790;28;20177;-77
2022/11/29 03:38:12;;;;;;;21.50;16.60;;;;;;;;;;5085914;28;20212;-77
2022/11/29 03:40:45;;;;;;;22.13;17.17;;;;;;;;;;5076342;28;20183;-77
2022/11/29 03:43:29;;;;;;;18.83;15.30;;;;;;;;;;5085978;28;20606;-78
2022/11/29 03:46:11;;;;;;;18.83;14.77;;;;;;;;;;5065528;28;20176;-78
2022/11/29 03:48:45;;;;;;;22.40;17.47;;;;;;;;;;5078357;28;20289;-78
2022/11/29 03:51:18;;;;;;;20.77;15.93;;;;;;;;;;5093026;28;20180;-78
2022/11/29 03:53:53;;;;;;;24.87;16.43;;;;;;;;;;5058621;28;20177;-78
2022/11/29 03:56:25;;;;;;;24.63;16.70;;;;;;;;;;5095853;28;20673;-77
2022/11/29 03:59:04;;;;;;;24.03;16.77;;;;;;;;;;5075031;28;20189;-77
2022/11/29 04:01:42;;;;;;;25.47;16.20;;;;;;;;;;5064743;28;20172;-77
2022/11/29 04:04:11;;;;;;;27.50;17.33;;;;;;;;;;5077638;28;20203;-77
2022/11/29 04:06:49;;;;;;;25.83;17.20;;;;;;;;;;5059450;28;20215;-78
2022/11/29 04:09:34;;;;;;;29.80;18.33;;;;;;;;;;5096401;28;20531;-77
2022/11/29 04:12:04;;;;;;;31.70;18.77;;;;;;;;;;5083186;28;20172;-77
2022/11/29 04:14:31;;;;;;;28.33;16.73;;;;;;;;;;5060075;28;20189;-78
2022/11/29 04:17:04;;;;;;;28.40;17.03;;;;;;;;;;5080232;28;20246;-77
2022/11/29 04:19:49;;;;;;;28.33;16.63;;;;;;;;;;5078845;28;20269;-77
2022/11/29 04:22:34;;;;;;;29.53;18.00;;;;;;;;;;5081914;28;20680;-77
2022/11/29 04:25:13;;;;;;;28.17;17.03;;;;;;;;;;5081056;28;20236;-77
2022/11/29 04:27:48;;;;;;;42.00;20.87;;;;;;;;;;5069375;28;20228;-77
2022/11/29 04:30:22;;;;;;;32.17;18.97;;;;;;;;;;5066269;28;20860;-77
2022/11/29 04:32:54;;;;;;;37.07;19.97;;;;;;;;;;5090581;28;20199;-77
2022/11/29 04:35:29;;;;;;;29.27;18.53;;;;;;;;;;5065548;28;20288;-77
2022/11/29 04:37:58;;;;;;;30.50;17.87;;;;;;;;;;5087700;28;20199;-77
2022/11/29 04:40:40;;;;;;;34.30;18.03;;;;;;;;;;5064798;28;20185;-77
2022/11/29 04:43:12;;;;;;;27.57;18.10;;;;;;;;;;5102795;28;20229;-77
2022/11/29 04:45:46;;;;;;;26.13;17.20;;;;;;;;;;5097967;28;20249;-77
2022/11/29 04:48:23;;;;;;;30.47;17.57;;;;;;;;;;5090131;28;20314;-78
2022/11/29 04:50:57;;;;;;;31.40;19.47;;;;;;;;;;5084794;28;20188;-76
2022/11/29 04:53:46;;;;;;;32.80;19.77;;;;;;;;;;5079450;28;20172;-76
2022/11/29 04:56:15;;;;;;;30.80;20.50;;;;;;;;;;5087298;28;20183;-76
2022/11/29 04:58:51;;;;;;;35.27;19.23;;;;;;;;;;5084697;28;20659;-76
2022/11/29 05:01:22;;;;;;;29.57;19.30;;;;;;;;;;5057170;28;20187;-76
2022/11/29 05:03:50;;;;;;;34.03;19.77;;;;;;;;;;5095473;28;20272;-76
2022/11/29 05:06:27;;;;;;;29.33;17.37;;;;;;;;;;5079376;28;20186;-76
2022/11/29 05:09:02;;;;;;;30.67;19.63;;;;;;;;;;5063560;28;20188;-76
2022/11/29 05:11:34;;;;;;;23.33;17.07;;;;;;;;;;5087389;28;20179;-76
2022/11/29 05:14:21;;;;;;;30.50;17.80;;;;;;;;;;5087972;28;20862;-76
2022/11/29 05:16:54;;;;;;;25.10;17.20;;;;;;;;;;5070755;28;20239;-76
2022/11/29 05:19:39;;;;;;;29.67;17.97;;;;;;;;;;5085757;28;20176;-76
2022/11/29 05:22:20;;;;;;;32.93;20.13;;;;;;;;;;5090339;28;20648;-76
2022/11/29 05:25:05;;;;;;;31.60;19.27;;;;;;;;;;5080705;28;20714;-76
2022/11/29 05:27:46;;;;;;;38.23;20.23;;;;;;;;;;5084833;28;20235;-76
2022/11/29 05:30:14;;;;;;;34.13;21.30;;;;;;;;;;5068195;28;20173;-77
2022/11/29 05:32:43;;;;;;;37.10;21.93;;;;;;;;;;5051725;28;20189;-76
2022/11/29 05:35:28;;;;;;;31.23;19.03;;;;;;;;;;5090332;28;20226;-76
2022/11/29 05:37:59;;;;;;;32.60;20.10;;;;;;;;;;5077175;28;20205;-77
2022/11/29 05:40:41;;;;;;;34.13;20.87;;;;;;;;;;5073085;28;20184;-76
2022/11/29 05:43:26;;;;;;;33.10;19.73;;;;;;;;;;5081124;28;20208;-76
2022/11/29 05:45:57;;;;;;;26.43;17.77;;;;;;;;;;5068172;28;20267;-77
2022/11/29 05:48:26;;;;;;;32.10;20.57;;;;;;;;;;5067988;28;20283;-76
2022/11/29 05:51:01;;;;;;;31.33;20.40;;;;;;;;;;5057844;28;20286;-77
2022/11/29 05:53:30;;;;;;;33.07;21.23;;;;;;;;;;5086806;28;20192;-76
2022/11/29 05:56:11;;;;;;;28.63;19.17;;;;;;;;;;5074006;28;20530;-77
2022/11/29 05:58:57;;;;;;;29.00;19.03;;;;;;;;;;5095983;28;20208;-77
2022/11/29 06:01:25;;;;;;;25.17;17.33;;;;;;;;;;5073951;28;20183;-77
2022/11/29 06:04:09;;;;;;;28.37;19.40;;;;;;;;;;5070512;28;20680;-76
2022/11/29 06:06:43;;;;;;;28.33;18.80;;;;;;;;;;5081876;28;20172;-76
2022/11/29 06:09:29;;;;;;;26.80;18.47;;;;;;;;;;5086271;28;20212;-77
2022/11/29 06:12:01;;;;;;;27.97;18.83;;;;;;;;;;5081954;28;20185;-77
2022/11/29 06:14:37;;;;;;;31.83;20.87;;;;;;;;;;5079479;28;20234;-77
2022/11/29 06:17:17;;;;;;;34.03;21.40;;;;;;;;;;5071165;28;20227;-76
2022/11/29 06:19:52;;;;;;;36.43;22.97;;;;;;;;;;5073468;28;20276;-76
2022/11/29 06:22:24;;;;;;;30.87;19.90;;;;;;;;;;5088926;28;20263;-74
2022/11/29 06:25:09;;;;;;;31.53;20.07;;;;;;;;;;5075384;28;20208;-74
2022/11/29 06:28:05;;;;;;;37.17;24.00;;;;;;;;;;5079689;28;20295;-73
2022/11/29 06:30:50;;;;;;;36.00;22.67;;;;;;;;;;5069329;28;20201;-75
2022/11/29 06:33:21;;;;;;;39.40;22.00;;;;;;;;;;5077368;28;20177;-76
2022/11/29 06:36:07;;;;;;;31.40;20.83;;;;;;;;;;5084595;28;20321;-75
2022/11/29 06:38:33;;;;;;;36.70;22.87;;;;;;;;;;5070086;28;20209;-74
2022/11/29 06:41:00;;;;;;;43.50;24.43;;;;;;;;;;5080906;28;20216;-75
2022/11/29 06:43:26;;;;;;;33.33;20.70;;;;;;;;;;5084611;28;20209;-75
2022/11/29 06:45:55;;;;;;;41.27;24.33;;;;;;;;;;5080661;28;20169;-75
2022/11/29 06:48:35;;;;;;;42.90;28.13;;;;;;;;;;5071483;28;20515;-75
2022/11/29 06:51:11;;;;;;;45.53;27.38;;;;;;;;;;5077278;28;21151;-75
2022/11/29 06:53:57;;;;;;;33.40;22.00;;;;;;;;;;5074788;28;20287;-74
2022/11/29 06:56:28;;;;;;;40.40;23.97;;;;;;;;;;5051673;28;20191;-76
2022/11/29 06:58:54;;;;;;;38.07;21.73;;;;;;;;;;5083253;28;20235;-76
2022/11/29 07:01:32;;;;;;;36.03;21.83;;;;;;;;;;5083896;28;20187;-76
2022/11/29 07:04:18;;;;;;;35.23;22.37;;;;;;;;;;5082431;28;20204;-74
2022/11/29 07:06:44;;;;;;;32.80;20.63;;;;;;;;;;5056597;28;20214;-77
2022/11/29 07:09:15;;;;;;;33.97;20.73;;;;;;;;;;5067550;28;20227;-76
2022/11/29 07:11:42;;;;;;;30.27;19.97;;;;;;;;;;5090045;28;20181;-75
2022/11/29 07:14:08;;;;;;;33.33;20.70;;;;;;;;;;5086560;28;20212;-76
2022/11/29 07:16:44;;;;;;;35.60;21.53;;;;;;;;;;5069687;28;20172;-76
2022/11/29 07:19:18;;;;;;;42.03;24.70;;;;;;;;;;5090520;28;20738;-74
2022/11/29 07:21:57;;;;;;;52.23;25.97;;;;;;;;;;5087762;28;20246;-76
2022/11/29 07:24:26;;;;;;;57.80;29.00;;;;;;;;;;5081171;28;20279;-76
2022/11/29 07:27:03;;;;;;;65.53;31.20;;;;;;;;;;5066416;28;20257;-74
2022/11/29 07:29:32;;;;;;;47.93;27.40;;;;;;;;;;5082573;28;20174;-76
2022/11/29 07:32:04;;;;;;;37.00;22.90;;;;;;;;;;5080550;28;20184;-76
2022/11/29 07:34:36;;;;;;;38.77;23.40;;;;;;;;;;5084840;28;20757;-75
2022/11/29 07:37:06;;;;;;;35.10;23.40;;;;;;;;;;5078319;28;20198;-73
2022/11/29 07:39:41;;;;;;;37.50;25.10;;;;;;;;;;5080534;28;20249;-74
2022/11/29 07:42:07;;;;;;;31.67;21.93;;;;;;;;;;5075854;28;20271;-76
2022/11/29 07:44:59;;;;;;;34.73;22.33;;;;;;;;;;5069496;28;20201;-76
2022/11/29 07:47:25;;;;;;;33.00;22.77;;;;;;;;;;5067896;28;20201;-76
2022/11/29 07:49:51;;;;;;;26.87;19.53;;;;;;;;;;5082063;28;20668;-76
2022/11/29 07:52:17;;;;;;;32.77;21.83;;;;;;;;;;5067679;28;20174;-76
2022/11/29 07:54:43;;;;;;;29.83;21.67;;;;;;;;;;5080346;28;20227;-76
2022/11/29 07:57:10;;;;;;;26.73;18.23;;;;;;;;;;5079775;28;20205;-76
2022/11/29 08:07:18;;;;;;;28.43;19.47;;;;;;;;;;5086236;28;20203;-75
2022/11/29 08:09:44;;;;;;;29.50;20.03;;;;;;;;;;5084091;28;20202;-76
2022/11/29 08:12:10;;;;;;;28.13;20.63;;;;;;;;;;5089168;28;20173;-76
2022/11/29 08:14:36;;;;;;;28.30;20.63;;;;;;;;;;5091395;28;20293;-76
2022/11/29 08:17:02;;;;;;;26.93;18.67;;;;;;;;;;5092801;28;20204;-76
2022/11/29 08:19:29;;;;;;;26.70;19.30;;;;;;;;;;5103354;28;20180;-77
2022/11/29 08:21:55;;;;;;;25.87;19.27;;;;;;;;;;5090475;28;20195;-76
2022/11/29 08:24:21;;;;;;;27.33;19.37;;;;;;;;;;5094246;28;20272;-76
2022/11/29 08:26:47;;;;;;;26.07;20.00;;;;;;;;;;5088812;28;20592;-72
2022/11/29 08:29:14;;;;;;;26.70;20.80;;;;;;;;;;5080621;28;20175;-77
2022/11/29 08:31:40;;;;;;;28.63;20.27;;;;;;;;;;5092451;28;20256;-80
2022/11/29 08:34:07;;;;;;;26.13;18.17;;;;;;;;;;5089874;28;20181;-77
2022/11/29 08:36:33;;;;;;;25.83;19.20;;;;;;;;;;5097153;28;20179;-77
2022/11/29 08:39:01;;;;;;;25.83;18.13;;;;;;;;;;5086956;28;20267;-77
2022/11/29 08:41:28;;;;;;;28.37;19.60;;;;;;;;;;5097360;28;20190;-75
2022/11/29 08:43:54;;;;;;;26.93;19.63;;;;;;;;;;5090258;28;20218;-77
2022/11/29 08:46:20;;;;;;;30.57;20.43;;;;;;;;;;5081095;28;20200;-79
2022/11/29 08:48:47;;;;;;;26.87;20.40;;;;;;;;;;5057922;28;20181;-79
2022/11/29 08:51:13;;;;;;;28.03;19.90;;;;;;;;;;5102554;28;20180;-80
2022/11/29 08:53:40;;;;;;;24.83;18.63;;;;;;;;;;5073547;28;20177;-79
2022/11/29 08:56:10;;;;;;;27.13;20.57;;;;;;;;;;5072287;28;20214;-78
2022/11/29 08:58:37;;;;;;;26.30;19.33;;;;;;;;;;5085135;28;20269;-78
2022/11/29 09:01:03;;;;;;;31.70;23.20;;;;;;;;;;5075064;28;20267;-78
2022/11/29 09:06:16;;;;;;;29.53;21.43;;;;;;;;;;5090155;28;20237;-78
2022/11/29 09:08:43;;;;;;;33.40;21.60;;;;;;;;;;5094130;28;20239;-78
2022/11/29 09:11:12;;;;;;;29.63;20.87;;;;;;;;;;5103415;28;20652;-78
2022/11/29 09:13:39;;;;;;;28.43;20.10;;;;;;;;;;5087638;28;20220;-78
2022/11/29 09:16:06;;;;;;;30.17;22.10;;;;;;;;;;5069902;28;20181;-78
2022/11/29 09:18:32;;;;;;;28.50;21.43;;;;;;;;;;5087009;28;20672;-78
2022/11/29 09:20:58;;;;;;;30.07;20.83;;;;;;;;;;5087316;28;20192;-78
2022/11/29 09:23:25;;;;;;;27.27;20.07;;;;;;;;;;5094459;28;20265;-78
2022/11/29 09:25:51;;;;;;;29.67;21.20;;;;;;;;;;5079038;28;20732;-78
2022/11/29 09:28:17;;;;;;;28.13;20.17;;;;;;;;;;5097047;28;20325;-78
2022/11/29 09:30:43;;;;;;;26.17;19.47;;;;;;;;;;5061153;28;20181;-77
2022/11/29 09:33:09;;;;;;;26.23;19.67;;;;;;;;;;5076313;28;20553;-78
2022/11/29 09:35:35;;;;;;;27.97;20.23;;;;;;;;;;5095280;28;20646;-78
2022/11/29 09:38:01;;;;;;;25.73;19.13;;;;;;;;;;5072051;28;20283;-78
2022/11/29 09:40:38;;;;;;;24.80;18.60;;;;;;;;;;5094960;28;20267;-78
2022/11/29 09:43:16;;;;;;;23.80;17.60;;;;;;;;;;5093584;28;20263;-78
2022/11/29 09:45:44;;;;;;;26.13;18.43;;;;;;;;;;5091874;28;20850;-78
2022/11/29 09:48:26;;;;;;;24.43;18.90;;;;;;;;;;5071420;28;20764;-78
2022/11/29 09:50:52;;;;;;;23.00;16.73;;;;;;;;;;5092613;28;20663;-78
2022/11/29 09:53:19;;;;;;;23.47;17.57;;;;;;;;;;5086242;28;20183;-78
2022/11/29 09:55:54;;;;;;;22.37;17.70;;;;;;;;;;5086478;28;20200;-78
2022/11/29 09:58:25;;;;;;;21.17;15.87;;;;;;;;;;5096964;28;20200;-78
2022/11/29 10:00:57;;;;;;;22.07;16.73;;;;;;;;;;5090045;28;20656;-78
2022/11/29 10:03:26;;;;;;;17.67;14.90;;;;;;;;;;5089551;28;20213;-78
2022/11/29 10:05:56;;;;;;;20.23;15.93;;;;;;;;;;5094339;28;20187;-78
2022/11/29 10:08:41;;;;;;;18.40;14.40;;;;;;;;;;5089150;28;20729;-78
2022/11/29 10:11:29;;;;;;;21.67;17.20;;;;;;;;;;5089863;28;20192;-78
2022/11/29 10:14:02;;;;;;;24.20;18.20;;;;;;;;;;5089481;28;20188;-78
2022/11/29 10:16:35;;;;;;;22.37;16.93;;;;;;;;;;5090129;28;20842;-78
2022/11/29 10:19:05;;;;;;;21.60;16.97;;;;;;;;;;5048133;28;20717;-78
2022/11/29 10:21:35;;;;;;;21.63;17.37;;;;;;;;;;5069529;28;20193;-79
2022/11/29 10:24:04;;;;;;;20.50;16.00;;;;;;;;;;5092390;28;20196;-78
2022/11/29 10:26:30;;;;;;;21.97;16.93;;;;;;;;;;5090297;28;20184;-78
2022/11/29 10:28:56;;;;;;;22.53;17.50;;;;;;;;;;5070271;28;20181;-78
2022/11/29 10:31:25;;;;;;;21.47;17.67;;;;;;;;;;5081192;28;20252;-78
2022/11/29 10:33:53;;;;;;;23.17;18.27;;;;;;;;;;5086827;28;20173;-78
2022/11/29 10:36:19;;;;;;;23.60;18.43;;;;;;;;;;5084877;28;20219;-78
2022/11/29 10:38:46;;;;;;;23.70;18.40;;;;;;;;;;5089294;28;20199;-78
2022/11/29 10:41:17;;;;;;;23.47;18.87;;;;;;;;;;5083464;28;20648;-78
2022/11/29 10:43:43;;;;;;;25.27;20.10;;;;;;;;;;5054197;28;20192;-77
2022/11/29 10:46:14;;;;;;;21.93;17.07;;;;;;;;;;5080047;28;20184;-78
2022/11/29 10:48:40;;;;;;;24.10;18.77;;;;;;;;;;5083156;28;20207;-78
2022/11/29 10:51:14;;;;;;;22.97;18.77;;;;;;;;;;5086117;28;20797;-78
2022/11/29 10:53:40;;;;;;;24.83;18.97;;;;;;;;;;5082524;28;20184;-78
2022/11/29 10:56:09;;;;;;;24.67;19.57;;;;;;;;;;5063927;28;20188;-78
2022/11/29 10:58:35;;;;;;;22.00;18.10;;;;;;;;;;5071039;28;20201;-78
2022/11/29 11:01:05;;;;;;;22.50;18.60;;;;;;;;;;5091707;28;20247;-78
2022/11/29 11:03:33;;;;;;;22.40;18.10;;;;;;;;;;5094920;28;20694;-78
2022/11/29 11:06:00;;;;;;;22.13;18.03;;;;;;;;;;5089476;28;20808;-78
2022/11/29 11:08:27;;;;;;;26.50;18.90;;;;;;;;;;5071449;28;20278;-78
2022/11/29 11:11:13;;;;;;;19.27;16.60;;;;;;;;;;5070017;28;20186;-78
2022/11/29 11:13:40;;;;;;;20.00;16.47;;;;;;;;;;5082283;28;20176;-78
2022/11/29 11:16:20;;;;;;;18.60;15.27;;;;;;;;;;5090900;28;20196;-78
2022/11/29 11:18:47;;;;;;;17.10;14.90;;;;;;;;;;5076736;28;20323;-78
2022/11/29 11:21:15;;;;;;;17.17;15.37;;;;;;;;;;5088941;28;20194;-78
2022/11/29 11:23:44;;;;;;;19.23;16.37;;;;;;;;;;5057406;28;20200;-78
2022/11/29 11:26:12;;;;;;;17.83;15.10;;;;;;;;;;5089204;28;20192;-78
2022/11/29 11:28:41;;;;;;;19.10;15.70;;;;;;;;;;5068076;28;20201;-78
2022/11/29 11:31:08;;;;;;;16.77;14.17;;;;;;;;;;5076313;28;20177;-78
2022/11/29 11:33:38;;;;;;;17.20;14.47;;;;;;;;;;5090359;28;20842;-78
2022/11/29 11:36:19;;;;;;;21.00;16.77;;;;;;;;;;5089808;28;20191;-78
2022/11/29 11:39:08;;;;;;;19.53;16.57;;;;;;;;;;5090399;28;20274;-78
2022/11/29 11:44:28;;;;;;;24.40;18.10;;;;;;;;;;5089359;28;20208;-78
2022/11/29 11:46:54;;;;;;;25.33;18.30;;;;;;;;;;5085151;28;20735;-78
2022/11/29 11:49:25;;;;;;;20.50;17.17;;;;;;;;;;5089767;28;20176;-79
2022/11/29 11:51:51;;;;;;;22.47;18.10;;;;;;;;;;5072454;28;20189;-78
2022/11/29 11:54:18;;;;;;;22.73;17.97;;;;;;;;;;5088853;28;20180;-78
2022/11/29 11:56:44;;;;;;;22.63;17.33;;;;;;;;;;5087941;28;20208;-78
2022/11/29 11:59:20;;;;;;;24.67;17.60;;;;;;;;;;5052007;28;20211;-78
2022/11/29 12:01:46;;;;;;;18.97;16.50;;;;;;;;;;5085455;28;20184;-77
2022/11/29 12:04:22;;;;;;;23.53;18.20;;;;;;;;;;5090446;28;20231;-78
2022/11/29 12:06:51;;;;;;;24.83;19.00;;;;;;;;;;5094609;28;20195;-78
2022/11/29 12:09:18;;;;;;;24.90;18.60;;;;;;;;;;5090510;28;20184;-80
2022/11/29 12:11:51;;;;;;;24.63;18.33;;;;;;;;;;5087511;28;20181;-78
2022/11/29 12:14:35;;;;;;;22.67;17.77;;;;;;;;;;5065811;28;20287;-79
2022/11/29 12:17:09;;;;;;;20.20;16.40;;;;;;;;;;5087864;28;20283;-78
2022/11/29 12:19:39;;;;;;;22.93;17.87;;;;;;;;;;5082016;28;20660;-80
2022/11/29 12:22:07;;;;;;;23.40;17.97;;;;;;;;;;5092330;28;20707;-79
2022/11/29 12:24:38;;;;;;;21.63;17.27;;;;;;;;;;5092091;28;20200;-78
2022/11/29 12:27:05;;;;;;;20.80;16.77;;;;;;;;;;5083647;28;20852;-78
2022/11/29 12:29:32;;;;;;;24.93;17.57;;;;;;;;;;5081884;28;20592;-77
2022/11/29 12:32:21;;;;;;;20.60;16.80;;;;;;;;;;5083266;28;20581;-78
2022/11/29 12:35:08;;;;;;;28.13;18.97;;;;;;;;;;5062447;28;20662;-78
2022/11/29 12:37:39;;;;;;;19.93;15.33;;;;;;;;;;5079315;28;20215;-78
2022/11/29 12:40:31;;;;;;;22.43;17.07;;;;;;;;;;5065468;28;20587;-74
2022/11/29 12:43:23;;;;;;;22.67;17.13;;;;;;;;;;5072989;28;20192;-74
2022/11/29 12:46:08;;;;;;;23.37;17.37;;;;;;;;;;5078278;28;20173;-74
2022/11/29 12:48:37;;;;;;;23.97;16.27;;;;;;;;;;5080508;28;20206;-76
2022/11/29 12:51:24;;;;;;;24.93;17.87;;;;;;;;;;5086970;28;20181;-76
2022/11/29 12:54:04;;;;;;;22.43;17.20;;;;;;;;;;5079461;28;20812;-73
2022/11/29 12:56:37;;;;;;;27.07;17.47;;;;;;;;;;5086663;28;20232;-77
2022/11/29 12:59:10;;;;;;;29.97;18.80;;;;;;;;;;5090268;28;20176;-77
2022/11/29 13:01:45;;;;;;;32.30;20.90;;;;;;;;;;5090921;28;20168;-77
2022/11/29 13:04:11;;;;;;;30.83;19.30;;;;;;;;;;5080600;28;20218;-78
2022/11/29 13:06:37;;;;;;;31.80;20.53;;;;;;;;;;5084175;28;20187;-78
2022/11/29 13:09:23;;;;;;;28.30;18.27;;;;;;;;;;5085302;28;20653;-78
2022/11/29 13:12:05;;;;;;;30.03;19.73;;;;;;;;;;5100051;28;20176;-78
2022/11/29 13:14:38;;;;;;;28.10;19.40;;;;;;;;;;5096632;28;20184;-78
2022/11/29 13:17:08;;;;;;;33.07;21.13;;;;;;;;;;5104247;28;20211;-78
2022/11/29 13:20:04;;;;;;;35.17;20.20;;;;;;;;;;5101410;28;20181;-78
2022/11/29 13:22:45;;;;;;;33.10;20.33;;;;;;;;;;5083960;28;20192;-78
2022/11/29 13:25:16;;;;;;;32.87;22.30;;;;;;;;;;5099974;28;20215;-78
2022/11/29 13:27:46;;;;;;;34.37;20.40;;;;;;;;;;5074631;28;20572;-78
2022/11/29 13:30:15;;;;;;;34.37;20.87;;;;;;;;;;5072075;28;20212;-77
2022/11/29 13:32:58;;;;;;;31.57;20.87;;;;;;;;;;5070991;28;20195;-78
2022/11/29 13:35:30;;;;;;;31.97;21.13;;;;;;;;;;5090145;28;20551;-78
2022/11/29 13:38:03;;;;;;;36.37;21.53;;;;;;;;;;5085878;28;20283;-77
2022/11/29 13:40:51;;;;;;;35.77;21.80;;;;;;;;;;5089942;28;20198;-77
2022/11/29 13:43:22;;;;;;;42.77;24.03;;;;;;;;;;5090101;28;20214;-78
2022/11/29 13:45:54;;;;;;;46.10;25.17;;;;;;;;;;5085154;28;20687;-78
2022/11/29 13:48:39;;;;;;;46.57;24.57;;;;;;;;;;5080578;28;20192;-78
2022/11/29 13:51:24;;;;;;;43.90;25.87;;;;;;;;;;5085268;28;20842;-78
2022/11/29 13:53:50;;;;;;;41.80;23.83;;;;;;;;;;5085526;28;20176;-78
2022/11/29 13:56:35;;;;;;;47.20;25.20;;;;;;;;;;5070829;28;20192;-77
2022/11/29 13:59:05;;;;;;;46.10;24.67;;;;;;;;;;5090386;28;20187;-78
2022/11/29 14:01:42;;;;;;;46.10;25.47;;;;;;;;;;5086341;28;20196;-78
2022/11/29 14:04:23;;;;;;;48.90;25.43;;;;;;;;;;5090049;28;20215;-78
2022/11/29 14:06:49;;;;;;;48.00;25.57;;;;;;;;;;5071525;28;20204;-78
2022/11/29 14:09:21;;;;;;;41.20;23.23;;;;;;;;;;5071707;28;20794;-78
2022/11/29 14:11:50;;;;;;;47.97;25.07;;;;;;;;;;5089777;28;20199;-78
2022/11/29 14:14:16;;;;;;;52.10;26.07;;;;;;;;;;5072102;28;20230;-78
2022/11/29 14:16:42;;;;;;;54.70;27.73;;;;;;;;;;5089456;28;20200;-78
2022/11/29 14:19:11;;;;;;;48.63;25.70;;;;;;;;;;5089303;28;20660;-78
2022/11/29 14:21:56;;;;;;;47.30;26.17;;;;;;;;;;5089503;28;20192;-78
2022/11/29 14:24:42;;;;;;;53.07;27.13;;;;;;;;;;5070119;28;20347;-78
2022/11/29 14:27:11;;;;;;;50.33;27.60;;;;;;;;;;5088296;28;20479;-78
2022/11/29 14:29:53;;;;;;;51.10;27.87;;;;;;;;;;5085262;28;20729;-78
2022/11/29 14:32:22;;;;;;;49.30;28.90;;;;;;;;;;5089553;28;20245;-78
2022/11/29 14:34:58;;;;;;;45.27;25.20;;;;;;;;;;5094471;28;20192;-78
2022/11/29 14:37:44;;;;;;;51.10;28.43;;;;;;;;;;5087150;28;20200;-78
2022/11/29 14:40:26;;;;;;;48.20;26.30;;;;;;;;;;5035533;28;21049;-78
2022/11/29 14:42:52;;;;;;;50.30;27.10;;;;;;;;;;5095880;28;20188;-78
2022/11/29 14:45:24;;;;;;;50.30;28.33;;;;;;;;;;5079556;28;20219;-78
2022/11/29 14:47:50;;;;;;;46.67;26.47;;;;;;;;;;5049554;28;20215;-78
2022/11/29 14:50:29;;;;;;;49.73;26.47;;;;;;;;;;5050103;28;20192;-78
2022/11/29 14:52:55;;;;;;;44.70;24.87;;;;;;;;;;5075935;28;20216;-79
2022/11/29 14:55:24;;;;;;;51.67;28.07;;;;;;;;;;5092095;28;20256;-78
2022/11/29 14:57:50;;;;;;;56.73;29.73;;;;;;;;;;5087433;28;20200;-78
2022/11/29 15:00:22;;;;;;;55.67;28.40;;;;;;;;;;5080089;28;20530;-78
2022/11/29 15:02:54;;;;;;;48.30;24.47;;;;;;;;;;5085953;28;20192;-77